Historique des mesures à Cassis (13260), France
Quotidien Résumé Juillet 10, 2018 Unités:  Métrique    US   Métrique/US
« Précédent (Jour)
Suivant (Jour) »
Quotidien Hebdomadaire Mensuel Annuel Période au choix
  Maximum: Minimum: Moyenne:
Température: TemperatureC °C 21.8 °C 26 °C
Point de rosée: DewpointC °C 12.4 °C 15 °C
Humidité: Humidity % 39 % 48 %
Vitesse du vent: 0 km/h 0 km/h 9.7 km/h
Rafales: 0 km/h - -
Vent:- - SW
Pression: PressurehPa hPa 1006.7 hPa -
Précipitations: 0.0 mm    
Historical Graphs
 
 
Mesures pour : Juillet 10, 2018
Heure Temperature Point de rosée Pression Vent Vitesse du vent Rafales Humidité Pluie (par heure) Conditions
TemperatureC °C DewpointC °C PressurehPa hPa Calm     Humidity % HourlyPrecipMM mm SoftwareType W/m2
00:10 25.4 °C 15.4 °C 1009.6 hPa WNW 8 km/h 9.8 km/h 54 % 0.0 mm open2300-1.11 W/m2
01:10 25.3 °C 15.0 °C 1009.4 hPa NNW 2.3 km/h 19.2 km/h 53 % 0.0 mm open2300-1.11 W/m2
02:10 24.7 °C 14.7 °C 1009.3 hPa Calm     54 % 0.0 mm open2300-1.11 W/m2
03:10 23.5 °C 14.2 °C 1009.2 hPa Calm   3.4 km/h 56 % 0.0 mm open2300-1.11 W/m2
04:10 22.8 °C 14.1 °C 1009.2 hPa North 3.4 km/h 3.4 km/h 58 % 0.0 mm open2300-1.11 W/m2
05:10 22.4 °C 13.7 °C 1009.0 hPa NW 7.6 km/h 7.6 km/h 58 % 0.0 mm open2300-1.11 W/m2
06:10 21.8 °C 13.7 °C 1009.3 hPa Calm   3.4 km/h 60 % 0.0 mm open2300-1.11 W/m2
07:10 21.9 °C 14.1 °C 1009.4 hPa NE 1.8 km/h 1.8 km/h 61 % 0.0 mm open2300-1.11 W/m2
08:10 24.5 °C 16.0 °C 1009.3 hPa Calm     59 % 0.0 mm open2300-1.11 W/m2
09:10 25.0 °C 16.1 °C 1009.5 hPa Calm   7.6 km/h 58 % 0.0 mm open2300-1.11 W/m2
10:10 26.2 °C 17.6 °C 1009.2 hPa West 3.4 km/h 4.2 km/h 59 % 0.0 mm open2300-1.11 W/m2
11:10 30.0 °C 18.8 °C 1009.3 hPa ESE 2.3 km/h 6.9 km/h 51 % 0.0 mm open2300-1.11 W/m2
12:10 31.7 °C 19.7 °C 1008.9 hPa SE 23 km/h 23 km/h 49 % 0.0 mm open2300-1.11 W/m2
13:10 32.1 °C 17.9 °C 1008.3 hPa North 9.3 km/h 30.7 km/h 43 % 0.0 mm open2300-1.11 W/m2
14:10 31.5 °C 16.3 °C 1007.9 hPa West 3.4 km/h 12.7 km/h 40 % 0.0 mm open2300-1.11 W/m2
15:10 31.6 °C 16.4 °C 1007.4 hPa West 19.6 km/h 30.1 km/h 40 % 0.0 mm open2300-1.11 W/m2
16:10 31.1 °C 16.0 °C 1007.3 hPa West 12.2 km/h 44.6 km/h 40 % 0.0 mm open2300-1.11 W/m2
17:10 30.1 °C 15.4 °C 1007.0 hPa West 17.9 km/h 43 km/h 41 % 0.0 mm open2300-1.11 W/m2
18:10 29.6 °C 15.7 °C 1006.7 hPa WNW 31.9 km/h 31.9 km/h 43 % 0.0 mm open2300-1.11 W/m2
19:10 29.2 °C 16.4 °C 1006.8 hPa WNW 27.2 km/h 27.2 km/h 46 % 0.0 mm open2300-1.11 W/m2
20:10 27.8 °C 16.4 °C 1006.9 hPa WNW 24.8 km/h 25.4 km/h 50 % 0.0 mm open2300-1.11 W/m2
21:10 26.9 °C 16.5 °C 1006.8 hPa WNW 12.7 km/h 12.7 km/h 53 % 0.0 mm open2300-1.11 W/m2
22:10 27.6 °C 13.2 °C 1007.2 hPa NW 18.7 km/h 19.6 km/h 41 % 0.0 mm open2300-1.11 W/m2
23:10 27.6 °C 12.4 °C 1007.1 hPa North 10.3 km/h 20.9 km/h 39 % 0.0 mm open2300-1.11 W/m2
Observations météo à CASSIS
WU-History script by Weather Underground - 1 mb